sensor_id;sensor_type;location;lat;lon;timestamp;P1;durP1;ratioP1;P2;durP2;ratioP2
23360;SDS011;11852;50.082;18.554;2023-07-13T00:00:19;4.4;;;2.1;;
23360;SDS011;11852;50.082;18.554;2023-07-13T00:01:23;5.9;;;2.0;;
23360;SDS011;11852;50.082;18.554;2023-07-13T00:02:28;4.7;;;2.0;;
23360;SDS011;11852;50.082;18.554;2023-07-13T00:03:33;4.7;;;2.0;;
23360;SDS011;11852;50.082;18.554;2023-07-13T00:04:39;4.7;;;2.0;;
23360;SDS011;11852;50.082;18.554;2023-07-13T00:05:44;5.9;;;2.3;;
23360;SDS011;11852;50.082;18.554;2023-07-13T00:06:49;6.6;;;2.3;;
23360;SDS011;11852;50.082;18.554;2023-07-13T00:07:55;6.0;;;2.2;;
23360;SDS011;11852;50.082;18.554;2023-07-13T00:09:00;5.0;;;2.1;;
23360;SDS011;11852;50.082;18.554;2023-07-13T00:10:05;4.8;;;2.3;;
23360;SDS011;11852;50.082;18.554;2023-07-13T00:11:10;5.5;;;2.3;;
23360;SDS011;11852;50.082;18.554;2023-07-13T00:13:28;6.3;;;2.5;;
23360;SDS011;11852;50.082;18.554;2023-07-13T00:14:32;6.2;;;2.6;;
23360;SDS011;11852;50.082;18.554;2023-07-13T00:15:37;5.0;;;2.6;;
23360;SDS011;11852;50.082;18.554;2023-07-13T00:16:42;5.1;;;2.4;;
23360;SDS011;11852;50.082;18.554;2023-07-13T00:17:47;5.8;;;2.6;;
23360;SDS011;11852;50.082;18.554;2023-07-13T00:18:52;5.6;;;2.7;;
23360;SDS011;11852;50.082;18.554;2023-07-13T00:19:58;5.6;;;2.6;;
23360;SDS011;11852;50.082;18.554;2023-07-13T00:21:05;5.0;;;2.4;;
23360;SDS011;11852;50.082;18.554;2023-07-13T00:22:10;5.5;;;2.5;;
23360;SDS011;11852;50.082;18.554;2023-07-13T00:23:15;7.7;;;2.4;;
23360;SDS011;11852;50.082;18.554;2023-07-13T00:24:20;6.5;;;3.2;;
23360;SDS011;11852;50.082;18.554;2023-07-13T00:25:25;5.0;;;2.3;;
23360;SDS011;11852;50.082;18.554;2023-07-13T00:26:31;5.7;;;2.6;;
23360;SDS011;11852;50.082;18.554;2023-07-13T00:27:36;7.2;;;2.9;;
23360;SDS011;11852;50.082;18.554;2023-07-13T00:28:41;9.0;;;3.1;;
23360;SDS011;11852;50.082;18.554;2023-07-13T00:29:47;6.7;;;3.3;;
23360;SDS011;11852;50.082;18.554;2023-07-13T00:30:52;5.3;;;3.0;;
23360;SDS011;11852;50.082;18.554;2023-07-13T00:31:56;5.9;;;2.8;;
23360;SDS011;11852;50.082;18.554;2023-07-13T00:33:01;7.7;;;3.3;;
23360;SDS011;11852;50.082;18.554;2023-07-13T00:34:06;5.1;;;2.7;;
23360;SDS011;11852;50.082;18.554;2023-07-13T00:35:13;7.0;;;3.0;;
23360;SDS011;11852;50.082;18.554;2023-07-13T00:36:16;7.0;;;3.1;;
23360;SDS011;11852;50.082;18.554;2023-07-13T00:37:21;6.5;;;3.2;;
23360;SDS011;11852;50.082;18.554;2023-07-13T00:38:25;7.8;;;3.4;;
23360;SDS011;11852;50.082;18.554;2023-07-13T00:39:32;6.6;;;3.4;;
23360;SDS011;11852;50.082;18.554;2023-07-13T00:40:36;5.6;;;3.1;;
23360;SDS011;11852;50.082;18.554;2023-07-13T00:41:41;8.2;;;3.4;;
23360;SDS011;11852;50.082;18.554;2023-07-13T00:42:46;8.1;;;3.4;;
23360;SDS011;11852;50.082;18.554;2023-07-13T00:43:51;7.1;;;3.4;;
23360;SDS011;11852;50.082;18.554;2023-07-13T00:46:14;8.5;;;3.6;;
23360;SDS011;11852;50.082;18.554;2023-07-13T00:47:15;8.4;;;3.6;;
23360;SDS011;11852;50.082;18.554;2023-07-13T00:48:21;7.7;;;3.2;;
23360;SDS011;11852;50.082;18.554;2023-07-13T00:49:25;7.1;;;3.2;;
23360;SDS011;11852;50.082;18.554;2023-07-13T00:50:29;6.9;;;3.0;;
23360;SDS011;11852;50.082;18.554;2023-07-13T00:51:37;8.9;;;3.6;;
23360;SDS011;11852;50.082;18.554;2023-07-13T00:52:39;7.8;;;3.6;;
23360;SDS011;11852;50.082;18.554;2023-07-13T00:53:44;6.8;;;3.6;;
23360;SDS011;11852;50.082;18.554;2023-07-13T00:54:50;8.6;;;3.6;;
23360;SDS011;11852;50.082;18.554;2023-07-13T00:55:55;6.5;;;3.7;;
23360;SDS011;11852;50.082;18.554;2023-07-13T00:57:01;7.9;;;3.3;;
23360;SDS011;11852;50.082;18.554;2023-07-13T00:58:04;6.9;;;3.5;;
23360;SDS011;11852;50.082;18.554;2023-07-13T00:59:09;7.1;;;3.3;;
23360;SDS011;11852;50.082;18.554;2023-07-13T01:00:14;8.7;;;3.7;;
23360;SDS011;11852;50.082;18.554;2023-07-13T01:01:19;8.1;;;4.2;;
23360;SDS011;11852;50.082;18.554;2023-07-13T01:02:24;7.3;;;3.7;;
23360;SDS011;11852;50.082;18.554;2023-07-13T01:03:28;6.8;;;3.9;;
23360;SDS011;11852;50.082;18.554;2023-07-13T01:04:33;9.0;;;3.9;;
23360;SDS011;11852;50.082;18.554;2023-07-13T01:05:38;7.1;;;3.7;;
23360;SDS011;11852;50.082;18.554;2023-07-13T01:06:43;7.3;;;3.7;;
23360;SDS011;11852;50.082;18.554;2023-07-13T01:07:48;7.1;;;3.7;;
23360;SDS011;11852;50.082;18.554;2023-07-13T01:08:53;7.8;;;3.8;;
23360;SDS011;11852;50.082;18.554;2023-07-13T01:09:58;7.6;;;3.3;;
23360;SDS011;11852;50.082;18.554;2023-07-13T01:11:03;7.4;;;3.2;;
23360;SDS011;11852;50.082;18.554;2023-07-13T01:12:08;6.5;;;3.2;;
23360;SDS011;11852;50.082;18.554;2023-07-13T01:13:12;5.9;;;3.1;;
23360;SDS011;11852;50.082;18.554;2023-07-13T01:14:17;8.5;;;3.2;;
23360;SDS011;11852;50.082;18.554;2023-07-13T01:16:38;7.8;;;3.1;;
23360;SDS011;11852;50.082;18.554;2023-07-13T01:17:42;5.9;;;2.9;;
23360;SDS011;11852;50.082;18.554;2023-07-13T01:18:47;7.3;;;3.0;;
23360;SDS011;11852;50.082;18.554;2023-07-13T01:19:52;5.9;;;3.3;;
23360;SDS011;11852;50.082;18.554;2023-07-13T01:20:58;6.4;;;3.1;;
23360;SDS011;11852;50.082;18.554;2023-07-13T01:22:05;5.7;;;3.0;;
23360;SDS011;11852;50.082;18.554;2023-07-13T01:23:10;5.6;;;3.1;;
23360;SDS011;11852;50.082;18.554;2023-07-13T01:24:14;6.9;;;3.1;;
23360;SDS011;11852;50.082;18.554;2023-07-13T01:25:20;6.4;;;3.2;;
23360;SDS011;11852;50.082;18.554;2023-07-13T01:26:24;6.4;;;3.1;;
23360;SDS011;11852;50.082;18.554;2023-07-13T01:27:30;5.7;;;2.9;;
23360;SDS011;11852;50.082;18.554;2023-07-13T01:28:36;5.8;;;3.2;;
23360;SDS011;11852;50.082;18.554;2023-07-13T01:29:44;5.6;;;3.3;;
23360;SDS011;11852;50.082;18.554;2023-07-13T01:30:49;7.4;;;3.5;;
23360;SDS011;11852;50.082;18.554;2023-07-13T01:31:54;6.6;;;3.4;;
23360;SDS011;11852;50.082;18.554;2023-07-13T01:32:58;6.2;;;3.3;;
23360;SDS011;11852;50.082;18.554;2023-07-13T01:34:03;6.5;;;3.4;;
23360;SDS011;11852;50.082;18.554;2023-07-13T01:35:08;6.5;;;3.5;;
23360;SDS011;11852;50.082;18.554;2023-07-13T01:36:13;6.8;;;3.5;;
23360;SDS011;11852;50.082;18.554;2023-07-13T01:37:18;6.3;;;3.0;;
23360;SDS011;11852;50.082;18.554;2023-07-13T01:38:23;6.5;;;3.1;;
23360;SDS011;11852;50.082;18.554;2023-07-13T01:39:27;7.1;;;3.2;;
23360;SDS011;11852;50.082;18.554;2023-07-13T01:40:32;5.9;;;3.3;;
23360;SDS011;11852;50.082;18.554;2023-07-13T01:41:37;7.2;;;3.1;;
23360;SDS011;11852;50.082;18.554;2023-07-13T01:42:43;5.4;;;3.4;;
23360;SDS011;11852;50.082;18.554;2023-07-13T01:43:49;7.9;;;3.5;;
23360;SDS011;11852;50.082;18.554;2023-07-13T01:44:54;6.8;;;3.4;;
23360;SDS011;11852;50.082;18.554;2023-07-13T01:45:59;7.9;;;3.7;;
23360;SDS011;11852;50.082;18.554;2023-07-13T01:47:04;6.2;;;3.3;;
23360;SDS011;11852;50.082;18.554;2023-07-13T01:48:08;6.5;;;3.6;;
23360;SDS011;11852;50.082;18.554;2023-07-13T01:49:13;6.9;;;3.3;;
23360;SDS011;11852;50.082;18.554;2023-07-13T01:50:18;6.9;;;3.7;;
23360;SDS011;11852;50.082;18.554;2023-07-13T01:51:23;6.3;;;3.3;;
23360;SDS011;11852;50.082;18.554;2023-07-13T01:52:27;7.0;;;3.6;;
23360;SDS011;11852;50.082;18.554;2023-07-13T01:53:32;10.7;;;4.1;;
23360;SDS011;11852;50.082;18.554;2023-07-13T01:54:37;6.4;;;3.6;;
23360;SDS011;11852;50.082;18.554;2023-07-13T01:55:43;6.1;;;3.5;;
23360;SDS011;11852;50.082;18.554;2023-07-13T01:56:48;7.4;;;3.6;;
23360;SDS011;11852;50.082;18.554;2023-07-13T01:57:52;6.3;;;3.6;;
23360;SDS011;11852;50.082;18.554;2023-07-13T01:58:57;7.3;;;3.7;;
23360;SDS011;11852;50.082;18.554;2023-07-13T02:00:05;5.8;;;3.5;;
23360;SDS011;11852;50.082;18.554;2023-07-13T02:01:11;6.4;;;3.9;;
23360;SDS011;11852;50.082;18.554;2023-07-13T02:02:16;8.6;;;3.7;;
23360;SDS011;11852;50.082;18.554;2023-07-13T02:03:21;7.8;;;4.1;;
23360;SDS011;11852;50.082;18.554;2023-07-13T02:04:26;8.4;;;3.8;;
23360;SDS011;11852;50.082;18.554;2023-07-13T02:05:31;7.8;;;3.8;;
23360;SDS011;11852;50.082;18.554;2023-07-13T02:06:36;6.3;;;3.5;;
23360;SDS011;11852;50.082;18.554;2023-07-13T02:07:41;7.6;;;3.8;;
23360;SDS011;11852;50.082;18.554;2023-07-13T02:08:46;7.5;;;3.8;;
23360;SDS011;11852;50.082;18.554;2023-07-13T02:09:51;7.3;;;4.0;;
23360;SDS011;11852;50.082;18.554;2023-07-13T02:10:55;7.4;;;3.8;;
23360;SDS011;11852;50.082;18.554;2023-07-13T02:12:00;7.1;;;4.0;;
23360;SDS011;11852;50.082;18.554;2023-07-13T02:13:06;7.5;;;3.8;;
23360;SDS011;11852;50.082;18.554;2023-07-13T02:14:10;6.8;;;4.1;;
23360;SDS011;11852;50.082;18.554;2023-07-13T02:15:15;7.7;;;4.2;;
23360;SDS011;11852;50.082;18.554;2023-07-13T02:16:19;7.2;;;4.1;;
23360;SDS011;11852;50.082;18.554;2023-07-13T02:17:25;7.5;;;4.2;;
23360;SDS011;11852;50.082;18.554;2023-07-13T02:18:29;8.2;;;4.3;;
23360;SDS011;11852;50.082;18.554;2023-07-13T02:19:36;8.0;;;4.1;;
23360;SDS011;11852;50.082;18.554;2023-07-13T02:20:40;8.6;;;4.5;;
23360;SDS011;11852;50.082;18.554;2023-07-13T02:21:45;7.3;;;4.3;;
23360;SDS011;11852;50.082;18.554;2023-07-13T02:22:50;8.2;;;4.7;;
23360;SDS011;11852;50.082;18.554;2023-07-13T02:23:55;8.2;;;4.8;;
23360;SDS011;11852;50.082;18.554;2023-07-13T02:25:00;9.7;;;4.8;;
23360;SDS011;11852;50.082;18.554;2023-07-13T02:26:04;8.4;;;4.8;;
23360;SDS011;11852;50.082;18.554;2023-07-13T02:27:09;8.7;;;5.1;;
23360;SDS011;11852;50.082;18.554;2023-07-13T02:28:14;7.9;;;4.9;;
23360;SDS011;11852;50.082;18.554;2023-07-13T02:29:19;8.6;;;4.6;;
23360;SDS011;11852;50.082;18.554;2023-07-13T02:30:24;8.4;;;4.6;;
23360;SDS011;11852;50.082;18.554;2023-07-13T02:31:29;8.7;;;5.0;;
23360;SDS011;11852;50.082;18.554;2023-07-13T02:32:34;8.6;;;5.3;;
23360;SDS011;11852;50.082;18.554;2023-07-13T02:33:39;9.4;;;4.9;;
23360;SDS011;11852;50.082;18.554;2023-07-13T02:34:44;10.6;;;5.4;;
23360;SDS011;11852;50.082;18.554;2023-07-13T02:35:49;10.2;;;5.7;;
23360;SDS011;11852;50.082;18.554;2023-07-13T02:36:54;9.7;;;5.2;;
23360;SDS011;11852;50.082;18.554;2023-07-13T02:37:58;9.2;;;5.2;;
23360;SDS011;11852;50.082;18.554;2023-07-13T02:39:04;9.9;;;5.9;;
23360;SDS011;11852;50.082;18.554;2023-07-13T02:40:08;9.6;;;5.6;;
23360;SDS011;11852;50.082;18.554;2023-07-13T02:41:13;8.9;;;5.8;;
23360;SDS011;11852;50.082;18.554;2023-07-13T02:42:18;10.0;;;5.8;;
23360;SDS011;11852;50.082;18.554;2023-07-13T02:43:23;9.8;;;5.4;;
23360;SDS011;11852;50.082;18.554;2023-07-13T02:44:28;10.2;;;5.6;;
23360;SDS011;11852;50.082;18.554;2023-07-13T02:45:32;9.2;;;5.3;;
23360;SDS011;11852;50.082;18.554;2023-07-13T02:46:37;8.7;;;5.8;;
23360;SDS011;11852;50.082;18.554;2023-07-13T02:47:42;10.1;;;5.9;;
23360;SDS011;11852;50.082;18.554;2023-07-13T02:48:47;8.6;;;5.4;;
23360;SDS011;11852;50.082;18.554;2023-07-13T02:49:52;9.0;;;5.0;;
23360;SDS011;11852;50.082;18.554;2023-07-13T02:50:56;9.0;;;5.5;;
23360;SDS011;11852;50.082;18.554;2023-07-13T02:52:01;9.9;;;5.8;;
23360;SDS011;11852;50.082;18.554;2023-07-13T02:53:06;11.8;;;5.3;;
23360;SDS011;11852;50.082;18.554;2023-07-13T02:54:11;9.1;;;5.5;;
23360;SDS011;11852;50.082;18.554;2023-07-13T02:55:15;11.6;;;5.7;;
23360;SDS011;11852;50.082;18.554;2023-07-13T02:56:22;11.1;;;5.4;;
23360;SDS011;11852;50.082;18.554;2023-07-13T02:57:26;11.4;;;5.5;;
23360;SDS011;11852;50.082;18.554;2023-07-13T02:58:31;9.6;;;5.5;;
23360;SDS011;11852;50.082;18.554;2023-07-13T02:59:36;9.0;;;5.9;;
23360;SDS011;11852;50.082;18.554;2023-07-13T03:00:41;9.3;;;5.7;;
23360;SDS011;11852;50.082;18.554;2023-07-13T03:01:45;10.2;;;5.4;;
23360;SDS011;11852;50.082;18.554;2023-07-13T03:02:50;9.3;;;5.1;;
23360;SDS011;11852;50.082;18.554;2023-07-13T03:03:56;8.9;;;5.2;;
23360;SDS011;11852;50.082;18.554;2023-07-13T03:05:01;8.2;;;5.2;;
23360;SDS011;11852;50.082;18.554;2023-07-13T03:06:06;7.3;;;4.8;;
23360;SDS011;11852;50.082;18.554;2023-07-13T03:07:10;10.6;;;4.9;;
23360;SDS011;11852;50.082;18.554;2023-07-13T03:08:15;9.7;;;5.6;;
23360;SDS011;11852;50.082;18.554;2023-07-13T03:09:20;8.2;;;5.1;;
23360;SDS011;11852;50.082;18.554;2023-07-13T03:10:25;9.2;;;5.7;;
23360;SDS011;11852;50.082;18.554;2023-07-13T03:11:30;8.7;;;4.9;;
23360;SDS011;11852;50.082;18.554;2023-07-13T03:12:35;10.0;;;5.3;;
23360;SDS011;11852;50.082;18.554;2023-07-13T03:13:40;10.0;;;5.2;;
23360;SDS011;11852;50.082;18.554;2023-07-13T03:14:45;9.3;;;4.7;;
23360;SDS011;11852;50.082;18.554;2023-07-13T03:15:51;9.6;;;5.1;;
23360;SDS011;11852;50.082;18.554;2023-07-13T03:16:56;8.4;;;5.2;;
23360;SDS011;11852;50.082;18.554;2023-07-13T03:18:02;8.0;;;5.2;;
23360;SDS011;11852;50.082;18.554;2023-07-13T03:19:07;8.3;;;4.9;;
23360;SDS011;11852;50.082;18.554;2023-07-13T03:20:14;8.6;;;4.9;;
23360;SDS011;11852;50.082;18.554;2023-07-13T03:21:19;7.7;;;4.6;;
23360;SDS011;11852;50.082;18.554;2023-07-13T03:22:24;8.2;;;5.0;;
23360;SDS011;11852;50.082;18.554;2023-07-13T03:23:29;7.6;;;4.6;;
23360;SDS011;11852;50.082;18.554;2023-07-13T03:24:34;7.8;;;4.6;;
23360;SDS011;11852;50.082;18.554;2023-07-13T03:25:38;8.5;;;4.8;;
23360;SDS011;11852;50.082;18.554;2023-07-13T03:26:44;9.2;;;5.1;;
23360;SDS011;11852;50.082;18.554;2023-07-13T03:27:49;9.2;;;4.9;;
23360;SDS011;11852;50.082;18.554;2023-07-13T03:28:54;7.6;;;5.1;;
23360;SDS011;11852;50.082;18.554;2023-07-13T03:29:59;10.3;;;4.6;;
23360;SDS011;11852;50.082;18.554;2023-07-13T03:31:08;9.2;;;4.6;;
23360;SDS011;11852;50.082;18.554;2023-07-13T03:32:11;9.0;;;3.9;;
23360;SDS011;11852;50.082;18.554;2023-07-13T03:33:16;8.4;;;4.1;;
23360;SDS011;11852;50.082;18.554;2023-07-13T03:34:21;9.8;;;4.0;;
23360;SDS011;11852;50.082;18.554;2023-07-13T03:35:26;8.0;;;3.7;;
23360;SDS011;11852;50.082;18.554;2023-07-13T03:36:31;7.1;;;3.6;;
23360;SDS011;11852;50.082;18.554;2023-07-13T03:37:35;8.9;;;3.7;;
23360;SDS011;11852;50.082;18.554;2023-07-13T03:38:40;10.9;;;3.9;;
23360;SDS011;11852;50.082;18.554;2023-07-13T03:39:46;9.0;;;3.9;;
23360;SDS011;11852;50.082;18.554;2023-07-13T03:40:53;8.9;;;3.7;;
23360;SDS011;11852;50.082;18.554;2023-07-13T03:41:58;9.0;;;3.8;;
23360;SDS011;11852;50.082;18.554;2023-07-13T03:43:03;9.9;;;3.7;;
23360;SDS011;11852;50.082;18.554;2023-07-13T03:44:08;8.4;;;3.4;;
23360;SDS011;11852;50.082;18.554;2023-07-13T03:45:13;9.1;;;3.5;;
23360;SDS011;11852;50.082;18.554;2023-07-13T03:46:18;7.0;;;3.4;;
23360;SDS011;11852;50.082;18.554;2023-07-13T03:47:22;8.9;;;3.5;;
23360;SDS011;11852;50.082;18.554;2023-07-13T03:48:28;7.2;;;3.2;;
23360;SDS011;11852;50.082;18.554;2023-07-13T03:49:33;6.8;;;3.6;;
23360;SDS011;11852;50.082;18.554;2023-07-13T03:50:38;9.2;;;3.7;;
23360;SDS011;11852;50.082;18.554;2023-07-13T03:51:42;8.1;;;3.5;;
23360;SDS011;11852;50.082;18.554;2023-07-13T03:52:47;8.2;;;3.3;;
23360;SDS011;11852;50.082;18.554;2023-07-13T03:53:52;7.9;;;3.6;;
23360;SDS011;11852;50.082;18.554;2023-07-13T03:54:57;6.3;;;3.1;;
23360;SDS011;11852;50.082;18.554;2023-07-13T03:56:03;8.4;;;3.2;;
23360;SDS011;11852;50.082;18.554;2023-07-13T03:57:08;8.3;;;3.6;;
23360;SDS011;11852;50.082;18.554;2023-07-13T03:59:28;8.5;;;3.8;;
23360;SDS011;11852;50.082;18.554;2023-07-13T04:00:33;8.5;;;3.5;;
23360;SDS011;11852;50.082;18.554;2023-07-13T04:01:38;7.0;;;3.4;;
23360;SDS011;11852;50.082;18.554;2023-07-13T04:02:43;7.8;;;3.6;;
23360;SDS011;11852;50.082;18.554;2023-07-13T04:03:48;8.7;;;3.7;;
23360;SDS011;11852;50.082;18.554;2023-07-13T04:04:53;7.5;;;3.4;;
23360;SDS011;11852;50.082;18.554;2023-07-13T04:05:58;6.8;;;3.3;;
23360;SDS011;11852;50.082;18.554;2023-07-13T04:07:02;6.8;;;3.3;;
23360;SDS011;11852;50.082;18.554;2023-07-13T04:08:07;6.2;;;3.4;;
23360;SDS011;11852;50.082;18.554;2023-07-13T04:09:13;8.3;;;3.6;;
23360;SDS011;11852;50.082;18.554;2023-07-13T04:10:18;8.8;;;3.5;;
23360;SDS011;11852;50.082;18.554;2023-07-13T04:11:24;8.1;;;3.5;;
23360;SDS011;11852;50.082;18.554;2023-07-13T04:12:28;6.4;;;3.2;;
23360;SDS011;11852;50.082;18.554;2023-07-13T04:13:33;7.3;;;3.6;;
23360;SDS011;11852;50.082;18.554;2023-07-13T04:14:39;6.5;;;3.6;;
23360;SDS011;11852;50.082;18.554;2023-07-13T04:15:44;11.1;;;3.7;;
23360;SDS011;11852;50.082;18.554;2023-07-13T04:16:49;7.2;;;3.6;;
23360;SDS011;11852;50.082;18.554;2023-07-13T04:17:54;6.4;;;3.4;;
23360;SDS011;11852;50.082;18.554;2023-07-13T04:19:01;8.5;;;3.5;;
23360;SDS011;11852;50.082;18.554;2023-07-13T04:20:06;8.0;;;3.3;;
23360;SDS011;11852;50.082;18.554;2023-07-13T04:21:11;7.8;;;3.5;;
23360;SDS011;11852;50.082;18.554;2023-07-13T04:22:15;7.8;;;3.5;;
23360;SDS011;11852;50.082;18.554;2023-07-13T04:23:21;7.4;;;3.3;;
23360;SDS011;11852;50.082;18.554;2023-07-13T04:24:26;8.8;;;3.7;;
23360;SDS011;11852;50.082;18.554;2023-07-13T04:25:31;7.0;;;3.3;;
23360;SDS011;11852;50.082;18.554;2023-07-13T04:26:35;7.2;;;3.7;;
23360;SDS011;11852;50.082;18.554;2023-07-13T04:27:40;6.4;;;3.4;;
23360;SDS011;11852;50.082;18.554;2023-07-13T04:28:47;7.1;;;3.6;;
23360;SDS011;11852;50.082;18.554;2023-07-13T04:29:52;9.5;;;3.4;;
23360;SDS011;11852;50.082;18.554;2023-07-13T04:30:57;6.6;;;3.4;;
23360;SDS011;11852;50.082;18.554;2023-07-13T04:32:01;7.5;;;3.6;;
23360;SDS011;11852;50.082;18.554;2023-07-13T04:33:06;7.6;;;3.3;;
23360;SDS011;11852;50.082;18.554;2023-07-13T04:34:12;6.3;;;3.2;;
23360;SDS011;11852;50.082;18.554;2023-07-13T04:35:18;6.1;;;3.2;;
23360;SDS011;11852;50.082;18.554;2023-07-13T04:36:24;7.7;;;3.6;;
23360;SDS011;11852;50.082;18.554;2023-07-13T04:37:28;7.5;;;3.3;;
23360;SDS011;11852;50.082;18.554;2023-07-13T04:38:33;6.9;;;3.3;;
23360;SDS011;11852;50.082;18.554;2023-07-13T04:39:38;9.0;;;3.5;;
23360;SDS011;11852;50.082;18.554;2023-07-13T04:40:47;6.0;;;3.3;;
23360;SDS011;11852;50.082;18.554;2023-07-13T04:41:50;6.9;;;3.4;;
23360;SDS011;11852;50.082;18.554;2023-07-13T04:42:55;8.0;;;3.4;;
23360;SDS011;11852;50.082;18.554;2023-07-13T04:44:00;6.4;;;3.6;;
23360;SDS011;11852;50.082;18.554;2023-07-13T04:45:06;7.7;;;3.3;;
23360;SDS011;11852;50.082;18.554;2023-07-13T04:46:17;6.7;;;3.4;;
23360;SDS011;11852;50.082;18.554;2023-07-13T04:47:18;8.5;;;3.6;;
23360;SDS011;11852;50.082;18.554;2023-07-13T04:48:22;8.0;;;3.4;;
23360;SDS011;11852;50.082;18.554;2023-07-13T04:49:27;7.0;;;3.7;;
23360;SDS011;11852;50.082;18.554;2023-07-13T04:50:32;7.6;;;3.7;;
23360;SDS011;11852;50.082;18.554;2023-07-13T04:51:36;6.6;;;3.8;;
23360;SDS011;11852;50.082;18.554;2023-07-13T04:52:41;7.9;;;3.6;;
23360;SDS011;11852;50.082;18.554;2023-07-13T04:53:46;8.8;;;3.9;;
23360;SDS011;11852;50.082;18.554;2023-07-13T04:54:52;7.7;;;3.7;;
23360;SDS011;11852;50.082;18.554;2023-07-13T04:55:57;8.9;;;3.8;;
23360;SDS011;11852;50.082;18.554;2023-07-13T04:57:02;7.7;;;3.7;;
23360;SDS011;11852;50.082;18.554;2023-07-13T04:58:08;8.9;;;3.8;;
23360;SDS011;11852;50.082;18.554;2023-07-13T04:59:14;7.8;;;3.5;;
23360;SDS011;11852;50.082;18.554;2023-07-13T05:00:19;7.5;;;3.7;;
23360;SDS011;11852;50.082;18.554;2023-07-13T05:01:24;7.6;;;3.8;;
23360;SDS011;11852;50.082;18.554;2023-07-13T05:02:30;8.0;;;3.7;;
23360;SDS011;11852;50.082;18.554;2023-07-13T05:03:35;8.7;;;3.8;;
23360;SDS011;11852;50.082;18.554;2023-07-13T05:04:41;7.2;;;4.0;;
23360;SDS011;11852;50.082;18.554;2023-07-13T05:07:01;8.2;;;4.3;;
23360;SDS011;11852;50.082;18.554;2023-07-13T05:08:07;7.9;;;4.1;;
23360;SDS011;11852;50.082;18.554;2023-07-13T05:09:12;6.1;;;3.9;;
23360;SDS011;11852;50.082;18.554;2023-07-13T05:10:17;7.9;;;4.0;;
23360;SDS011;11852;50.082;18.554;2023-07-13T05:11:22;7.9;;;4.1;;
23360;SDS011;11852;50.082;18.554;2023-07-13T05:12:28;8.4;;;3.6;;
23360;SDS011;11852;50.082;18.554;2023-07-13T05:13:33;7.3;;;4.0;;
23360;SDS011;11852;50.082;18.554;2023-07-13T05:14:38;7.9;;;3.7;;
23360;SDS011;11852;50.082;18.554;2023-07-13T05:15:47;9.9;;;3.9;;
23360;SDS011;11852;50.082;18.554;2023-07-13T05:16:50;8.3;;;4.0;;
23360;SDS011;11852;50.082;18.554;2023-07-13T05:17:55;8.3;;;4.0;;
23360;SDS011;11852;50.082;18.554;2023-07-13T05:19:00;8.3;;;3.9;;
23360;SDS011;11852;50.082;18.554;2023-07-13T05:20:05;9.3;;;3.7;;
23360;SDS011;11852;50.082;18.554;2023-07-13T05:21:10;8.4;;;3.6;;
23360;SDS011;11852;50.082;18.554;2023-07-13T05:22:15;8.4;;;4.0;;
23360;SDS011;11852;50.082;18.554;2023-07-13T05:23:19;8.3;;;3.9;;
23360;SDS011;11852;50.082;18.554;2023-07-13T05:24:24;7.4;;;3.6;;
23360;SDS011;11852;50.082;18.554;2023-07-13T05:25:29;8.8;;;3.8;;
23360;SDS011;11852;50.082;18.554;2023-07-13T05:26:34;8.3;;;3.8;;
23360;SDS011;11852;50.082;18.554;2023-07-13T05:27:39;8.5;;;3.8;;
23360;SDS011;11852;50.082;18.554;2023-07-13T05:28:44;6.6;;;3.9;;
23360;SDS011;11852;50.082;18.554;2023-07-13T05:29:48;7.2;;;3.9;;
23360;SDS011;11852;50.082;18.554;2023-07-13T05:30:53;7.8;;;3.8;;
23360;SDS011;11852;50.082;18.554;2023-07-13T05:31:58;7.8;;;4.0;;
23360;SDS011;11852;50.082;18.554;2023-07-13T05:33:03;7.6;;;3.7;;
23360;SDS011;11852;50.082;18.554;2023-07-13T05:34:07;8.0;;;3.8;;
23360;SDS011;11852;50.082;18.554;2023-07-13T05:35:12;7.2;;;3.5;;
23360;SDS011;11852;50.082;18.554;2023-07-13T05:36:17;9.4;;;4.0;;
23360;SDS011;11852;50.082;18.554;2023-07-13T05:37:22;8.6;;;3.8;;
23360;SDS011;11852;50.082;18.554;2023-07-13T05:38:31;8.4;;;3.7;;
23360;SDS011;11852;50.082;18.554;2023-07-13T05:39:36;9.2;;;4.2;;
23360;SDS011;11852;50.082;18.554;2023-07-13T05:40:45;9.0;;;3.7;;
23360;SDS011;11852;50.082;18.554;2023-07-13T05:41:49;6.7;;;3.8;;
23360;SDS011;11852;50.082;18.554;2023-07-13T05:42:54;8.1;;;3.9;;
23360;SDS011;11852;50.082;18.554;2023-07-13T05:43:59;6.9;;;4.0;;
23360;SDS011;11852;50.082;18.554;2023-07-13T05:45:04;7.4;;;4.2;;
23360;SDS011;11852;50.082;18.554;2023-07-13T05:46:09;7.7;;;4.3;;
23360;SDS011;11852;50.082;18.554;2023-07-13T05:47:13;8.0;;;4.9;;
23360;SDS011;11852;50.082;18.554;2023-07-13T05:48:18;8.9;;;4.7;;
23360;SDS011;11852;50.082;18.554;2023-07-13T05:49:23;8.0;;;4.4;;
23360;SDS011;11852;50.082;18.554;2023-07-13T05:50:28;8.7;;;4.3;;
23360;SDS011;11852;50.082;18.554;2023-07-13T05:51:33;8.2;;;4.7;;
23360;SDS011;11852;50.082;18.554;2023-07-13T05:52:38;10.6;;;4.4;;
23360;SDS011;11852;50.082;18.554;2023-07-13T05:53:42;9.1;;;4.8;;
23360;SDS011;11852;50.082;18.554;2023-07-13T05:54:47;8.7;;;4.9;;
23360;SDS011;11852;50.082;18.554;2023-07-13T05:55:53;8.9;;;5.0;;
23360;SDS011;11852;50.082;18.554;2023-07-13T05:56:58;9.7;;;5.5;;
23360;SDS011;11852;50.082;18.554;2023-07-13T05:58:02;10.0;;;5.1;;
23360;SDS011;11852;50.082;18.554;2023-07-13T05:59:07;9.3;;;5.7;;
23360;SDS011;11852;50.082;18.554;2023-07-13T06:00:12;10.1;;;5.5;;
23360;SDS011;11852;50.082;18.554;2023-07-13T06:01:17;9.3;;;6.1;;
23360;SDS011;11852;50.082;18.554;2023-07-13T06:02:22;9.5;;;5.9;;
23360;SDS011;11852;50.082;18.554;2023-07-13T06:03:27;9.8;;;5.3;;
23360;SDS011;11852;50.082;18.554;2023-07-13T06:04:31;10.7;;;6.0;;
23360;SDS011;11852;50.082;18.554;2023-07-13T06:05:36;10.2;;;5.5;;
23360;SDS011;11852;50.082;18.554;2023-07-13T06:06:41;8.6;;;6.0;;
23360;SDS011;11852;50.082;18.554;2023-07-13T06:07:46;9.6;;;5.7;;
23360;SDS011;11852;50.082;18.554;2023-07-13T06:08:51;9.6;;;5.7;;
23360;SDS011;11852;50.082;18.554;2023-07-13T06:09:56;9.2;;;5.8;;
23360;SDS011;11852;50.082;18.554;2023-07-13T06:12:10;8.8;;;6.1;;
23360;SDS011;11852;50.082;18.554;2023-07-13T06:13:15;9.1;;;5.7;;
23360;SDS011;11852;50.082;18.554;2023-07-13T06:14:20;11.4;;;5.5;;
23360;SDS011;11852;50.082;18.554;2023-07-13T06:15:27;9.1;;;5.3;;
23360;SDS011;11852;50.082;18.554;2023-07-13T06:16:32;9.2;;;5.4;;
23360;SDS011;11852;50.082;18.554;2023-07-13T06:17:37;10.0;;;5.0;;
23360;SDS011;11852;50.082;18.554;2023-07-13T06:18:42;9.9;;;5.3;;
23360;SDS011;11852;50.082;18.554;2023-07-13T06:19:46;10.5;;;5.3;;
23360;SDS011;11852;50.082;18.554;2023-07-13T06:20:52;10.8;;;5.2;;
23360;SDS011;11852;50.082;18.554;2023-07-13T06:21:57;9.8;;;5.5;;
23360;SDS011;11852;50.082;18.554;2023-07-13T06:23:02;10.8;;;5.2;;
23360;SDS011;11852;50.082;18.554;2023-07-13T06:24:07;10.3;;;5.1;;
23360;SDS011;11852;50.082;18.554;2023-07-13T06:25:11;10.3;;;5.3;;
23360;SDS011;11852;50.082;18.554;2023-07-13T06:26:17;10.9;;;5.4;;
23360;SDS011;11852;50.082;18.554;2023-07-13T06:27:21;11.3;;;5.5;;
23360;SDS011;11852;50.082;18.554;2023-07-13T06:28:26;10.2;;;5.7;;
23360;SDS011;11852;50.082;18.554;2023-07-13T06:29:30;11.1;;;5.7;;
23360;SDS011;11852;50.082;18.554;2023-07-13T06:30:37;10.9;;;5.0;;
23360;SDS011;11852;50.082;18.554;2023-07-13T06:31:41;12.9;;;5.6;;
23360;SDS011;11852;50.082;18.554;2023-07-13T06:32:46;11.0;;;5.5;;
23360;SDS011;11852;50.082;18.554;2023-07-13T06:33:51;10.4;;;5.5;;
23360;SDS011;11852;50.082;18.554;2023-07-13T06:34:56;12.5;;;5.8;;
23360;SDS011;11852;50.082;18.554;2023-07-13T06:36:01;11.3;;;5.6;;
23360;SDS011;11852;50.082;18.554;2023-07-13T06:37:09;11.6;;;5.3;;
23360;SDS011;11852;50.082;18.554;2023-07-13T06:38:13;12.3;;;5.8;;
23360;SDS011;11852;50.082;18.554;2023-07-13T06:39:18;11.7;;;5.2;;
23360;SDS011;11852;50.082;18.554;2023-07-13T06:40:23;12.5;;;5.5;;
23360;SDS011;11852;50.082;18.554;2023-07-13T06:41:33;9.7;;;5.1;;
23360;SDS011;11852;50.082;18.554;2023-07-13T06:42:37;10.0;;;5.2;;
23360;SDS011;11852;50.082;18.554;2023-07-13T06:43:42;8.5;;;4.9;;
23360;SDS011;11852;50.082;18.554;2023-07-13T06:44:47;10.7;;;5.2;;